createdAt,value
2022-08-07T00:02:40.665Z,20.80
2022-08-07T00:05:04.061Z,20.74
2022-08-07T00:07:40.284Z,20.74
2022-08-07T00:10:27.126Z,20.74
2022-08-07T00:13:01.237Z,20.70
2022-08-07T00:15:38.083Z,20.71
2022-08-07T00:18:18.882Z,20.67
2022-08-07T00:20:51.321Z,20.64
2022-08-07T00:23:21.158Z,20.58
2022-08-07T00:25:58.964Z,20.58
2022-08-07T00:28:33.461Z,20.55
2022-08-07T00:31:05.730Z,20.57
2022-08-07T00:33:35.911Z,20.61
2022-08-07T00:36:07.865Z,20.57
2022-08-07T00:38:39.124Z,20.49
2022-08-07T00:41:09.775Z,20.45
2022-08-07T00:44:01.217Z,20.43
2022-08-07T00:46:33.946Z,20.41
2022-08-07T00:49:03.489Z,20.36
2022-08-07T00:51:58.567Z,20.34
2022-08-07T00:54:22.638Z,20.38
2022-08-07T00:56:52.179Z,20.38
2022-08-07T00:59:35.253Z,20.37
2022-08-07T01:02:08.810Z,20.30
2022-08-07T01:04:43.106Z,20.32
2022-08-07T01:07:13.987Z,20.32
2022-08-07T01:10:04.279Z,20.33
2022-08-07T01:12:32.967Z,20.35
2022-08-07T01:15:04.054Z,20.36
2022-08-07T01:17:34.470Z,20.37
2022-08-07T01:20:08.965Z,20.39
2022-08-07T01:22:46.582Z,20.38
2022-08-07T01:25:53.807Z,20.29
2022-08-07T01:28:12.050Z,20.23
2022-08-07T01:30:42.679Z,20.22
2022-08-07T01:33:11.137Z,20.23
2022-08-07T01:35:52.883Z,20.23
2022-08-07T01:38:25.830Z,20.24
2022-08-07T01:41:00.255Z,20.21
2022-08-07T01:43:34.751Z,20.19
2022-08-07T01:46:08.317Z,20.17
2022-08-07T01:48:42.275Z,20.16
2022-08-07T01:52:02.832Z,20.14
2022-08-07T01:54:33.299Z,20.16
2022-08-07T01:57:06.906Z,20.11
2022-08-07T01:59:45.274Z,20.10
2022-08-07T02:02:33.011Z,20.03
2022-08-07T02:05:16.092Z,20.03
2022-08-07T02:08:20.345Z,20.03
2022-08-07T02:10:58.615Z,20.03
2022-08-07T02:13:58.011Z,20.04
2022-08-07T02:16:32.960Z,20.04
2022-08-07T02:19:05.498Z,20.03
2022-08-07T02:21:57.768Z,20.01
2022-08-07T02:24:30.143Z,19.99
2022-08-07T02:27:02.461Z,20.00
2022-08-07T02:29:36.870Z,20.01
2022-08-07T02:32:18.385Z,20.03
2022-08-07T02:34:53.377Z,20.01
2022-08-07T02:37:24.786Z,19.98
2022-08-07T02:40:02.119Z,19.96
2022-08-07T02:42:48.253Z,19.96
2022-08-07T02:45:59.177Z,19.97
2022-08-07T02:48:10.211Z,19.99
2022-08-07T02:50:43.569Z,19.98
2022-08-07T02:53:16.578Z,19.99
2022-08-07T02:56:04.395Z,20.01
2022-08-07T02:58:36.785Z,19.99
2022-08-07T03:01:19.123Z,19.97
2022-08-07T03:04:03.383Z,19.97
2022-08-07T03:06:38.828Z,19.96
2022-08-07T03:09:11.167Z,19.99
2022-08-07T03:11:52.266Z,19.98
2022-08-07T03:14:28.561Z,19.97
2022-08-07T03:16:57.490Z,19.97
2022-08-07T03:19:28.734Z,19.97
2022-08-07T03:21:58.607Z,19.95
2022-08-07T03:24:28.309Z,19.93
2022-08-07T03:27:01.488Z,19.92
2022-08-07T03:29:36.799Z,19.90
2022-08-07T03:32:13.059Z,19.87
2022-08-07T03:34:47.219Z,19.79
2022-08-07T03:37:32.456Z,19.78
2022-08-07T03:40:15.269Z,19.80
2022-08-07T03:42:45.218Z,19.80
2022-08-07T03:45:29.838Z,19.80
2022-08-07T03:48:00.165Z,19.80
2022-08-07T03:50:30.163Z,19.79
2022-08-07T03:53:00.296Z,19.79
2022-08-07T03:55:57.426Z,19.81
2022-08-07T03:59:04.557Z,19.75
2022-08-07T04:01:11.651Z,19.75
2022-08-07T04:03:53.625Z,19.74
2022-08-07T04:06:37.926Z,19.74
2022-08-07T04:09:08.543Z,19.79
2022-08-07T04:12:25.663Z,19.81
2022-08-07T04:14:39.009Z,19.81
2022-08-07T04:17:20.051Z,19.83
2022-08-07T04:19:54.241Z,19.83
2022-08-07T04:22:27.448Z,19.80
2022-08-07T04:24:58.898Z,19.81
2022-08-07T04:27:35.512Z,19.82
2022-08-07T04:30:20.938Z,19.81
2022-08-07T04:32:59.013Z,19.83
2022-08-07T04:35:28.546Z,19.83
2022-08-07T04:38:07.778Z,19.82
2022-08-07T04:40:51.280Z,19.81
2022-08-07T04:44:09.770Z,19.80
2022-08-07T04:46:29.258Z,19.76
2022-08-07T04:49:18.310Z,19.75
2022-08-07T04:52:01.566Z,19.78
2022-08-07T04:54:36.854Z,19.75
2022-08-07T04:58:13.158Z,19.74
2022-08-07T05:00:18.914Z,19.73
2022-08-07T05:02:57.942Z,19.72
2022-08-07T05:05:52.834Z,19.74
2022-08-07T05:09:00.195Z,19.74
2022-08-07T05:11:19.353Z,19.74
2022-08-07T05:14:56.172Z,19.73
2022-08-07T05:16:52.683Z,19.72
2022-08-07T05:19:32.735Z,19.71
2022-08-07T05:22:26.691Z,19.66
2022-08-07T05:25:00.383Z,19.69
2022-08-07T05:28:02.494Z,19.69
2022-08-07T05:30:30.022Z,19.71
2022-08-07T05:33:03.354Z,19.74
2022-08-07T05:35:42.258Z,19.76
2022-08-07T05:39:00.263Z,19.75
2022-08-07T05:41:12.125Z,19.76
2022-08-07T05:44:07.672Z,19.76
2022-08-07T05:46:35.497Z,19.79
2022-08-07T05:49:11.753Z,19.81
2022-08-07T05:51:42.917Z,19.84
2022-08-07T05:54:44.601Z,19.85
2022-08-07T05:57:03.786Z,19.84
2022-08-07T05:59:46.541Z,19.85
2022-08-07T06:02:29.136Z,19.89
2022-08-07T06:05:03.867Z,19.90
2022-08-07T06:08:13.835Z,19.91
2022-08-07T06:10:25.041Z,19.94
2022-08-07T06:12:53.889Z,19.95
2022-08-07T06:15:39.063Z,19.95
2022-08-07T06:18:14.096Z,19.95
2022-08-07T06:20:50.291Z,19.95
2022-08-07T06:24:38.211Z,19.94
2022-08-07T06:26:27.515Z,19.97
2022-08-07T06:29:01.328Z,20.02
2022-08-07T06:31:47.220Z,20.05
2022-08-07T06:34:19.725Z,20.07
2022-08-07T06:36:51.955Z,20.09
2022-08-07T06:40:13.149Z,20.10
2022-08-07T06:42:17.573Z,20.11
2022-08-07T06:44:49.967Z,20.14
2022-08-07T06:47:21.100Z,20.17
2022-08-07T06:49:51.209Z,20.19
2022-08-07T06:52:31.705Z,20.19
2022-08-07T06:55:32.250Z,20.15
2022-08-07T06:58:04.841Z,20.14
2022-08-07T07:00:36.885Z,20.15
2022-08-07T07:03:08.728Z,20.20
2022-08-07T07:06:04.151Z,20.25
2022-08-07T07:08:31.122Z,20.31
2022-08-07T07:11:13.040Z,20.32
2022-08-07T07:13:58.312Z,20.29
2022-08-07T07:16:38.931Z,20.31
2022-08-07T07:19:55.679Z,20.32
2022-08-07T07:22:32.171Z,20.35
2022-08-07T07:25:02.951Z,20.40
2022-08-07T07:27:56.042Z,20.36
2022-08-07T07:30:40.118Z,20.38
2022-08-07T07:33:12.123Z,20.35
2022-08-07T07:35:54.730Z,20.34
2022-08-07T07:38:34.985Z,20.34
2022-08-07T07:41:08.727Z,20.39
2022-08-07T07:43:47.942Z,20.47
2022-08-07T07:46:39.829Z,20.52
2022-08-07T07:50:33.820Z,20.57
2022-08-07T07:52:15.803Z,20.63
2022-08-07T07:54:50.557Z,20.70
2022-08-07T07:57:43.660Z,20.74
2022-08-07T08:00:21.174Z,20.78
2022-08-07T08:03:07.887Z,20.75
2022-08-07T08:05:54.856Z,20.74
2022-08-07T08:08:37.093Z,20.79
2022-08-07T08:11:16.226Z,20.84
2022-08-07T08:13:55.425Z,20.88
2022-08-07T08:16:30.028Z,20.87
2022-08-07T08:19:18.099Z,20.87
2022-08-07T08:22:10.920Z,20.80
2022-08-07T08:25:18.144Z,20.77
2022-08-07T08:27:56.812Z,20.69
2022-08-07T08:30:30.276Z,20.63
2022-08-07T08:33:04.111Z,20.63
2022-08-07T08:35:39.411Z,20.66
2022-08-07T08:38:21.694Z,20.72
2022-08-07T08:41:03.813Z,20.72
2022-08-07T08:43:41.995Z,20.78
2022-08-07T08:46:20.377Z,20.83
2022-08-07T08:48:58.406Z,20.91
2022-08-07T08:51:49.501Z,20.94
2022-08-07T08:54:27.365Z,21.01
2022-08-07T08:56:59.247Z,21.08
2022-08-07T08:59:42.179Z,21.15
2022-08-07T09:02:36.395Z,21.20
2022-08-07T09:05:26.446Z,21.27
2022-08-07T09:08:31.374Z,21.30
2022-08-07T09:11:24.831Z,21.31
2022-08-07T09:14:13.051Z,21.32
2022-08-07T09:17:03.079Z,21.34
2022-08-07T09:19:55.216Z,21.39
2022-08-07T09:24:28.729Z,21.44
2022-08-07T09:25:39.213Z,21.49
2022-08-07T09:29:24.345Z,21.55
2022-08-07T09:31:03.022Z,21.58
2022-08-07T09:33:56.612Z,21.58
2022-08-07T09:36:35.689Z,21.61
2022-08-07T09:39:27.351Z,21.68
2022-08-07T09:42:33.559Z,21.77
2022-08-07T09:47:25.643Z,21.82
2022-08-07T09:48:14.387Z,21.87
2022-08-07T09:50:55.337Z,21.92
2022-08-07T09:53:27.163Z,21.98
2022-08-07T09:56:47.639Z,22.06
2022-08-07T09:59:44.557Z,22.13
2022-08-07T10:02:53.659Z,22.21
2022-08-07T10:05:59.429Z,22.30
2022-08-07T10:08:58.748Z,22.38
2022-08-07T10:12:03.155Z,22.47
2022-08-07T10:14:54.953Z,22.58
2022-08-07T10:18:01.678Z,22.68
2022-08-07T10:20:41.068Z,22.69
2022-08-07T10:24:05.504Z,22.71
2022-08-07T10:26:45.173Z,22.76
2022-08-07T10:30:06.508Z,22.81
2022-08-07T10:32:59.813Z,22.91
2022-08-07T10:35:56.499Z,22.97
2022-08-07T10:38:48.288Z,23.05
2022-08-07T10:41:54.687Z,23.12
2022-08-07T10:44:38.044Z,23.21
2022-08-07T10:47:27.251Z,23.24
2022-08-07T10:50:15.151Z,23.26
2022-08-07T10:52:53.397Z,23.31
2022-08-07T10:55:37.711Z,23.41
2022-08-07T10:58:24.945Z,23.50
2022-08-07T11:01:18.780Z,23.59
2022-08-07T11:04:16.606Z,23.69
2022-08-07T11:06:57.187Z,23.74
2022-08-07T11:10:09.400Z,23.82
2022-08-07T11:12:31.686Z,23.87
2022-08-07T11:15:14.443Z,23.93
2022-08-07T11:17:50.310Z,24.09
2022-08-07T11:20:31.369Z,24.21
2022-08-07T11:23:09.259Z,24.27
2022-08-07T11:25:47.886Z,24.35
2022-08-07T11:28:24.585Z,24.45
2022-08-07T11:31:01.077Z,24.55
2022-08-07T11:33:53.691Z,24.61
2022-08-07T11:36:42.062Z,24.61
2022-08-07T11:39:19.411Z,24.58
2022-08-07T11:42:00.280Z,24.59
2022-08-07T11:44:52.442Z,24.71
2022-08-07T11:47:56.043Z,24.79
2022-08-07T11:50:57.455Z,24.78
2022-08-07T11:54:01.548Z,24.72
2022-08-07T11:56:42.657Z,24.71
2022-08-07T12:00:12.268Z,24.71
2022-08-07T12:02:32.149Z,24.80
2022-08-07T12:05:09.179Z,24.95
2022-08-07T12:07:53.431Z,25.07
2022-08-07T12:10:41.640Z,25.19
2022-08-07T12:13:18.611Z,25.18
2022-08-07T12:16:09.191Z,25.13
2022-08-07T12:18:47.574Z,25.13
2022-08-07T12:22:36.144Z,25.07
2022-08-07T12:24:38.470Z,25.03
2022-08-07T12:27:16.125Z,25.02
2022-08-07T12:29:52.913Z,25.02
2022-08-07T12:32:28.520Z,25.03
2022-08-07T12:35:00.977Z,25.03
2022-08-07T12:38:10.081Z,25.03
2022-08-07T12:40:46.559Z,25.02
2022-08-07T12:44:03.586Z,25.03
2022-08-07T12:46:16.031Z,24.99
2022-08-07T12:49:09.846Z,24.93
2022-08-07T12:52:12.052Z,24.86
2022-08-07T12:54:55.042Z,24.82
2022-08-07T12:58:00.207Z,24.79
2022-08-07T13:00:31.231Z,24.79
2022-08-07T13:04:02.454Z,24.80
2022-08-07T13:07:00.695Z,24.75
2022-08-07T13:10:37.951Z,24.69
2022-08-07T13:12:56.140Z,24.62
2022-08-07T13:15:37.246Z,24.56
2022-08-07T13:18:26.681Z,24.55
2022-08-07T13:21:06.065Z,24.55
2022-08-07T13:24:01.981Z,24.53
2022-08-07T13:26:41.818Z,24.50
2022-08-07T13:29:19.408Z,24.46
2022-08-07T13:31:57.466Z,24.43
2022-08-07T13:34:36.648Z,24.42
2022-08-07T13:37:20.590Z,24.41
2022-08-07T13:40:35.611Z,24.37
2022-08-07T13:42:55.633Z,24.34
2022-08-07T13:46:20.771Z,24.33
2022-08-07T13:48:27.787Z,24.33
2022-08-07T13:51:27.987Z,24.33
2022-08-07T13:54:00.646Z,24.37
2022-08-07T13:56:35.963Z,24.41
2022-08-07T13:59:13.838Z,24.47
2022-08-07T14:01:59.102Z,24.55
2022-08-07T14:04:49.634Z,24.64
2022-08-07T14:07:23.047Z,24.73
2022-08-07T14:10:12.400Z,24.81
2022-08-07T14:12:55.758Z,24.85
2022-08-07T14:15:36.525Z,24.84
2022-08-07T14:18:24.468Z,24.84
2022-08-07T14:21:08.321Z,24.87
2022-08-07T14:24:00.407Z,24.89
2022-08-07T14:26:37.242Z,24.88
2022-08-07T14:30:06.232Z,24.88
2022-08-07T14:32:02.289Z,24.90
2022-08-07T14:34:34.437Z,24.92
2022-08-07T14:37:18.765Z,24.94
2022-08-07T14:40:16.616Z,25.01
2022-08-07T14:43:00.736Z,25.12
2022-08-07T14:45:46.815Z,25.24
2022-08-07T14:48:21.035Z,25.35
2022-08-07T14:50:53.257Z,25.43
2022-08-07T14:54:08.590Z,25.43
2022-08-07T14:56:29.494Z,25.38
2022-08-07T14:59:13.812Z,25.31
2022-08-07T15:01:59.027Z,25.29
2022-08-07T15:04:28.866Z,25.25
2022-08-07T15:06:58.235Z,25.24
2022-08-07T15:09:59.482Z,25.24
2022-08-07T15:21:08.002Z,25.50
2022-08-07T15:25:12.690Z,25.53
2022-08-07T15:26:39.471Z,25.48
2022-08-07T15:32:05.070Z,25.30
2022-08-07T15:34:50.379Z,25.18
2022-08-07T15:37:27.730Z,25.05
2022-08-07T15:39:59.740Z,24.94
2022-08-07T15:42:52.060Z,24.85
2022-08-07T15:51:18.086Z,24.64
2022-08-07T15:53:53.616Z,24.60
2022-08-07T15:56:33.227Z,24.62
2022-08-07T15:59:06.661Z,24.59
2022-08-07T16:02:01.753Z,24.58
2022-08-07T16:04:35.695Z,24.58
2022-08-07T16:08:33.706Z,24.59
2022-08-07T16:10:08.710Z,24.59
2022-08-07T16:13:01.349Z,24.58
2022-08-07T16:15:57.443Z,24.54
2022-08-07T16:18:51.017Z,24.51
2022-08-07T16:22:01.983Z,24.50
2022-08-07T16:24:33.686Z,24.53
2022-08-07T16:27:20.927Z,24.54
2022-08-07T16:30:29.523Z,24.54
2022-08-07T16:34:02.249Z,24.51
2022-08-07T16:36:20.239Z,24.50
2022-08-07T16:39:14.886Z,24.53
2022-08-07T16:42:02.846Z,24.52
2022-08-07T16:45:15.556Z,24.54
2022-08-07T16:48:28.454Z,24.48
2022-08-07T16:51:54.380Z,24.44
2022-08-07T16:54:19.501Z,24.44
2022-08-07T16:57:03.184Z,24.41
2022-08-07T16:59:46.073Z,24.41
2022-08-07T17:02:52.517Z,24.38
2022-08-07T17:06:19.572Z,24.34
2022-08-07T17:09:09.165Z,24.26
2022-08-07T17:12:01.799Z,24.21
2022-08-07T17:14:44.722Z,24.16
2022-08-07T17:17:44.326Z,24.13
2022-08-07T17:20:30.089Z,24.08
2022-08-07T17:23:12.992Z,24.06
2022-08-07T17:25:54.595Z,24.06
2022-08-07T17:28:34.467Z,24.03
2022-08-07T17:31:15.725Z,24.01
2022-08-07T17:34:32.766Z,23.97
2022-08-07T17:36:58.006Z,23.92
2022-08-07T17:39:57.753Z,23.93
2022-08-07T17:42:58.262Z,23.89
2022-08-07T17:45:35.264Z,23.85
2022-08-07T17:48:10.399Z,23.81
2022-08-07T17:50:54.210Z,23.77
2022-08-07T17:54:01.038Z,23.76
2022-08-07T17:56:29.732Z,23.77
2022-08-07T17:59:10.308Z,23.74
2022-08-07T18:01:56.768Z,23.70
2022-08-07T18:04:34.497Z,23.68
2022-08-07T18:07:19.956Z,23.65
2022-08-07T18:10:06.211Z,23.58
2022-08-07T18:13:09.634Z,23.57
2022-08-07T18:15:53.430Z,23.53
2022-08-07T18:18:45.834Z,23.52
2022-08-07T18:21:42.212Z,23.50
2022-08-07T18:24:28.391Z,23.46
2022-08-07T18:27:38.932Z,23.41
2022-08-07T18:30:31.429Z,23.34
2022-08-07T18:33:37.867Z,23.29
2022-08-07T18:36:17.582Z,23.23
2022-08-07T18:40:05.476Z,23.18
2022-08-07T18:42:12.816Z,23.13
2022-08-07T18:45:44.167Z,23.11
2022-08-07T18:48:00.830Z,23.06
2022-08-07T18:50:49.532Z,23.02
2022-08-07T18:53:37.054Z,23.01
2022-08-07T18:56:17.689Z,22.98
2022-08-07T18:59:47.733Z,22.96
2022-08-07T19:02:33.031Z,22.94
2022-08-07T19:05:15.285Z,22.93
2022-08-07T19:08:03.814Z,22.90
2022-08-07T19:10:49.777Z,22.90
2022-08-07T19:13:27.447Z,22.89
2022-08-07T19:17:00.288Z,22.89
2022-08-07T19:19:03.430Z,22.87
2022-08-07T19:21:45.126Z,22.86
2022-08-07T19:24:31.043Z,22.83
2022-08-07T19:28:56.401Z,22.79
2022-08-07T19:31:05.607Z,22.78
2022-08-07T19:32:59.091Z,22.77
2022-08-07T19:35:33.232Z,22.75
2022-08-07T19:38:15.718Z,22.75
2022-08-07T19:40:50.086Z,22.75
2022-08-07T19:43:48.737Z,22.74
2022-08-07T19:46:15.743Z,22.76
2022-08-07T19:48:54.186Z,22.77
2022-08-07T19:51:51.082Z,22.73
2022-08-07T19:54:35.149Z,22.72
2022-08-07T19:57:59.905Z,22.70
2022-08-07T20:00:02.040Z,22.65
2022-08-07T20:02:35.630Z,22.60
2022-08-07T20:05:10.865Z,22.56
2022-08-07T20:07:46.418Z,22.53
2022-08-07T20:10:35.527Z,22.46
2022-08-07T20:13:23.464Z,22.41
2022-08-07T20:15:58.389Z,22.37
2022-08-07T20:18:33.005Z,22.30
2022-08-07T20:21:21.005Z,22.24
2022-08-07T20:23:57.882Z,22.20
2022-08-07T20:26:44.843Z,22.16
2022-08-07T20:29:47.133Z,22.15
2022-08-07T20:32:11.335Z,22.12
2022-08-07T20:34:51.716Z,22.07
2022-08-07T20:37:26.333Z,22.05
2022-08-07T20:40:02.158Z,21.98
2022-08-07T20:42:38.601Z,21.90
2022-08-07T20:45:33.641Z,21.78
2022-08-07T20:48:02.496Z,21.66
2022-08-07T20:50:31.950Z,21.57
2022-08-07T20:53:00.844Z,21.53
2022-08-07T20:55:32.297Z,21.50
2022-08-07T20:58:19.187Z,21.43
2022-08-07T21:01:02.768Z,21.32
2022-08-07T21:03:34.565Z,21.19
2022-08-07T21:06:21.796Z,21.01
2022-08-07T21:09:01.072Z,20.83
2022-08-07T21:11:46.029Z,20.74
2022-08-07T21:14:33.293Z,20.74
2022-08-07T21:18:00.930Z,20.80
2022-08-07T21:20:04.424Z,20.88
2022-08-07T21:22:44.695Z,20.93
2022-08-07T21:25:21.336Z,20.84
2022-08-07T21:28:02.560Z,20.62
2022-08-07T21:30:43.906Z,20.49
2022-08-07T21:33:18.934Z,20.46
2022-08-07T21:36:05.133Z,20.39
2022-08-07T21:38:54.488Z,20.30
2022-08-07T21:41:38.422Z,20.34
2022-08-07T21:44:29.923Z,20.31
2022-08-07T21:47:07.383Z,20.22
2022-08-07T21:50:01.813Z,20.09
2022-08-07T21:52:45.127Z,19.99
2022-08-07T21:55:29.868Z,19.86
2022-08-07T21:58:09.217Z,19.92
2022-08-07T22:00:48.579Z,20.03
2022-08-07T22:03:31.537Z,20.01
2022-08-07T22:06:05.003Z,20.05
2022-08-07T22:08:40.309Z,20.10
2022-08-07T22:11:17.650Z,20.02
2022-08-07T22:13:52.666Z,19.97
2022-08-07T22:16:42.654Z,19.96
2022-08-07T22:19:29.321Z,19.91
2022-08-07T22:22:20.703Z,19.82
2022-08-07T22:25:03.274Z,19.75
2022-08-07T22:28:08.337Z,19.68
2022-08-07T22:30:32.913Z,19.65
2022-08-07T22:33:07.268Z,19.69
2022-08-07T22:35:44.842Z,19.61
2022-08-07T22:38:29.350Z,19.51
2022-08-07T22:41:03.919Z,19.42
2022-08-07T22:43:40.383Z,19.37
2022-08-07T22:47:02.483Z,19.31
2022-08-07T22:49:55.280Z,19.39
2022-08-07T22:53:18.602Z,19.44
2022-08-07T22:56:09.060Z,19.38
2022-08-07T22:59:20.314Z,19.26
2022-08-07T23:02:02.848Z,19.05
2022-08-07T23:04:57.815Z,18.93
2022-08-07T23:07:54.663Z,18.95
2022-08-07T23:10:39.623Z,18.92
2022-08-07T23:13:48.972Z,18.93
2022-08-07T23:16:44.789Z,18.96
2022-08-07T23:19:51.749Z,18.91
2022-08-07T23:22:35.974Z,18.98
2022-08-07T23:25:28.337Z,19.06
2022-08-07T23:28:22.529Z,19.11
2022-08-07T23:31:43.023Z,19.10
2022-08-07T23:34:37.715Z,19.13
2022-08-07T23:37:30.352Z,19.06
2022-08-07T23:40:13.838Z,18.85
2022-08-07T23:43:02.137Z,18.76
2022-08-07T23:46:02.974Z,18.71
2022-08-07T23:49:15.660Z,18.74
2022-08-07T23:52:59.616Z,18.74
2022-08-07T23:54:46.560Z,18.77
2022-08-07T23:57:29.101Z,18.66
